sensor_id;sensor_type;location;lat;lon;timestamp;P1;durP1;ratioP1;P2;durP2;ratioP2
17886;SDS011;9069;52.044;7.472;2023-04-25T00:01:16;10.27;;;2.78;;
17886;SDS011;9069;52.044;7.472;2023-04-25T00:03:42;6.03;;;2.22;;
17886;SDS011;9069;52.044;7.472;2023-04-25T00:06:10;5.97;;;2.60;;
17886;SDS011;9069;52.044;7.472;2023-04-25T00:08:36;7.82;;;2.53;;
17886;SDS011;9069;52.044;7.472;2023-04-25T00:11:03;11.10;;;2.63;;
17886;SDS011;9069;52.044;7.472;2023-04-25T00:13:30;5.40;;;2.15;;
17886;SDS011;9069;52.044;7.472;2023-04-25T00:15:57;7.57;;;2.03;;
17886;SDS011;9069;52.044;7.472;2023-04-25T00:18:24;7.05;;;2.42;;
17886;SDS011;9069;52.044;7.472;2023-04-25T00:20:51;4.63;;;1.90;;
17886;SDS011;9069;52.044;7.472;2023-04-25T00:23:17;6.53;;;2.47;;
17886;SDS011;9069;52.044;7.472;2023-04-25T00:25:45;4.88;;;2.53;;
17886;SDS011;9069;52.044;7.472;2023-04-25T00:28:12;4.82;;;2.28;;
17886;SDS011;9069;52.044;7.472;2023-04-25T00:30:39;7.60;;;2.33;;
17886;SDS011;9069;52.044;7.472;2023-04-25T00:33:07;2.92;;;1.90;;
17886;SDS011;9069;52.044;7.472;2023-04-25T00:35:34;3.50;;;2.00;;
17886;SDS011;9069;52.044;7.472;2023-04-25T00:38:01;7.85;;;2.00;;
17886;SDS011;9069;52.044;7.472;2023-04-25T00:40:28;5.75;;;1.92;;
17886;SDS011;9069;52.044;7.472;2023-04-25T00:42:55;5.63;;;1.90;;
17886;SDS011;9069;52.044;7.472;2023-04-25T00:45:22;2.92;;;1.80;;
17886;SDS011;9069;52.044;7.472;2023-04-25T00:47:53;3.35;;;1.80;;
17886;SDS011;9069;52.044;7.472;2023-04-25T00:50:21;3.78;;;1.92;;
17886;SDS011;9069;52.044;7.472;2023-04-25T00:52:47;2.03;;;1.50;;
17886;SDS011;9069;52.044;7.472;2023-04-25T00:55:14;5.78;;;2.25;;
17886;SDS011;9069;52.044;7.472;2023-04-25T00:57:42;3.72;;;1.77;;
17886;SDS011;9069;52.044;7.472;2023-04-25T01:00:09;3.70;;;1.80;;
17886;SDS011;9069;52.044;7.472;2023-04-25T01:02:37;5.50;;;2.17;;
17886;SDS011;9069;52.044;7.472;2023-04-25T01:05:04;3.10;;;1.73;;
17886;SDS011;9069;52.044;7.472;2023-04-25T01:07:31;5.25;;;1.77;;
17886;SDS011;9069;52.044;7.472;2023-04-25T01:09:58;7.53;;;2.38;;
17886;SDS011;9069;52.044;7.472;2023-04-25T01:12:24;5.78;;;1.90;;
17886;SDS011;9069;52.044;7.472;2023-04-25T01:14:51;4.63;;;1.60;;
17886;SDS011;9069;52.044;7.472;2023-04-25T01:17:18;8.63;;;1.88;;
17886;SDS011;9069;52.044;7.472;2023-04-25T01:19:45;8.80;;;1.70;;
17886;SDS011;9069;52.044;7.472;2023-04-25T01:22:14;6.00;;;1.80;;
17886;SDS011;9069;52.044;7.472;2023-04-25T01:24:41;9.23;;;2.35;;
17886;SDS011;9069;52.044;7.472;2023-04-25T01:27:08;11.10;;;2.20;;
17886;SDS011;9069;52.044;7.472;2023-04-25T01:29:35;8.32;;;2.03;;
17886;SDS011;9069;52.044;7.472;2023-04-25T01:32:03;5.15;;;1.85;;
17886;SDS011;9069;52.044;7.472;2023-04-25T01:34:32;5.20;;;1.98;;
17886;SDS011;9069;52.044;7.472;2023-04-25T01:36:59;9.95;;;2.75;;
17886;SDS011;9069;52.044;7.472;2023-04-25T01:39:28;7.97;;;2.00;;
17886;SDS011;9069;52.044;7.472;2023-04-25T01:41:55;9.95;;;2.00;;
17886;SDS011;9069;52.044;7.472;2023-04-25T01:44:23;8.50;;;1.85;;
17886;SDS011;9069;52.044;7.472;2023-04-25T01:46:50;12.18;;;2.38;;
17886;SDS011;9069;52.044;7.472;2023-04-25T01:49:16;9.68;;;2.30;;
17886;SDS011;9069;52.044;7.472;2023-04-25T01:51:43;6.22;;;2.00;;
17886;SDS011;9069;52.044;7.472;2023-04-25T01:54:11;7.20;;;2.25;;
17886;SDS011;9069;52.044;7.472;2023-04-25T01:56:38;17.52;;;2.47;;
17886;SDS011;9069;52.044;7.472;2023-04-25T01:59:09;12.48;;;2.38;;
17886;SDS011;9069;52.044;7.472;2023-04-25T02:01:58;12.52;;;2.78;;
17886;SDS011;9069;52.044;7.472;2023-04-25T02:04:30;7.25;;;2.13;;
17886;SDS011;9069;52.044;7.472;2023-04-25T02:06:58;13.75;;;2.90;;
17886;SDS011;9069;52.044;7.472;2023-04-25T02:09:33;10.18;;;2.45;;
17886;SDS011;9069;52.044;7.472;2023-04-25T02:12:04;5.90;;;2.05;;
17886;SDS011;9069;52.044;7.472;2023-04-25T02:14:36;14.75;;;3.13;;
17886;SDS011;9069;52.044;7.472;2023-04-25T02:17:13;13.10;;;2.53;;
17886;SDS011;9069;52.044;7.472;2023-04-25T02:19:40;10.90;;;2.70;;
17886;SDS011;9069;52.044;7.472;2023-04-25T02:22:06;12.98;;;2.58;;
17886;SDS011;9069;52.044;7.472;2023-04-25T02:24:33;10.98;;;2.83;;
17886;SDS011;9069;52.044;7.472;2023-04-25T02:27:00;11.35;;;2.80;;
17886;SDS011;9069;52.044;7.472;2023-04-25T02:29:27;10.88;;;2.78;;
17886;SDS011;9069;52.044;7.472;2023-04-25T02:31:55;9.85;;;3.30;;
17886;SDS011;9069;52.044;7.472;2023-04-25T02:34:22;6.63;;;2.42;;
17886;SDS011;9069;52.044;7.472;2023-04-25T02:36:48;8.18;;;2.55;;
17886;SDS011;9069;52.044;7.472;2023-04-25T02:39:17;13.32;;;3.40;;
17886;SDS011;9069;52.044;7.472;2023-04-25T02:41:43;12.98;;;2.20;;
17886;SDS011;9069;52.044;7.472;2023-04-25T02:44:10;14.13;;;2.63;;
17886;SDS011;9069;52.044;7.472;2023-04-25T02:46:37;10.13;;;2.63;;
17886;SDS011;9069;52.044;7.472;2023-04-25T02:49:05;13.10;;;2.70;;
17886;SDS011;9069;52.044;7.472;2023-04-25T02:51:33;12.15;;;2.92;;
17886;SDS011;9069;52.044;7.472;2023-04-25T02:54:00;17.02;;;3.13;;
17886;SDS011;9069;52.044;7.472;2023-04-25T02:56:26;13.35;;;2.75;;
17886;SDS011;9069;52.044;7.472;2023-04-25T02:58:53;10.40;;;2.40;;
17886;SDS011;9069;52.044;7.472;2023-04-25T03:01:20;13.85;;;2.33;;
17886;SDS011;9069;52.044;7.472;2023-04-25T03:03:47;16.75;;;2.80;;
17886;SDS011;9069;52.044;7.472;2023-04-25T03:06:15;8.52;;;2.50;;
17886;SDS011;9069;52.044;7.472;2023-04-25T03:08:42;7.35;;;2.10;;
17886;SDS011;9069;52.044;7.472;2023-04-25T03:11:09;11.45;;;2.90;;
17886;SDS011;9069;52.044;7.472;2023-04-25T03:13:36;15.13;;;2.88;;
17886;SDS011;9069;52.044;7.472;2023-04-25T03:16:04;11.50;;;2.30;;
17886;SDS011;9069;52.044;7.472;2023-04-25T03:18:31;6.22;;;2.70;;
17886;SDS011;9069;52.044;7.472;2023-04-25T03:20:58;8.65;;;2.15;;
17886;SDS011;9069;52.044;7.472;2023-04-25T03:23:25;11.30;;;2.50;;
17886;SDS011;9069;52.044;7.472;2023-04-25T03:25:52;13.25;;;3.15;;
17886;SDS011;9069;52.044;7.472;2023-04-25T03:28:19;9.75;;;2.65;;
17886;SDS011;9069;52.044;7.472;2023-04-25T03:30:46;10.15;;;2.53;;
17886;SDS011;9069;52.044;7.472;2023-04-25T03:33:13;14.65;;;2.83;;
17886;SDS011;9069;52.044;7.472;2023-04-25T03:35:40;12.63;;;2.80;;
17886;SDS011;9069;52.044;7.472;2023-04-25T03:38:07;13.73;;;3.25;;
17886;SDS011;9069;52.044;7.472;2023-04-25T03:40:38;16.27;;;2.78;;
17886;SDS011;9069;52.044;7.472;2023-04-25T03:43:10;9.35;;;2.67;;
17886;SDS011;9069;52.044;7.472;2023-04-25T03:45:41;11.68;;;3.03;;
17886;SDS011;9069;52.044;7.472;2023-04-25T03:48:08;11.63;;;2.40;;
17886;SDS011;9069;52.044;7.472;2023-04-25T03:50:35;8.80;;;2.72;;
17886;SDS011;9069;52.044;7.472;2023-04-25T03:53:03;20.58;;;2.78;;
17886;SDS011;9069;52.044;7.472;2023-04-25T03:55:42;13.23;;;3.17;;
17886;SDS011;9069;52.044;7.472;2023-04-25T03:58:09;10.05;;;2.97;;
17886;SDS011;9069;52.044;7.472;2023-04-25T04:00:37;14.88;;;2.97;;
17886;SDS011;9069;52.044;7.472;2023-04-25T04:03:03;11.05;;;2.40;;
17886;SDS011;9069;52.044;7.472;2023-04-25T04:05:30;12.77;;;2.30;;
17886;SDS011;9069;52.044;7.472;2023-04-25T04:07:59;13.32;;;2.90;;
17886;SDS011;9069;52.044;7.472;2023-04-25T04:10:26;9.88;;;2.95;;
17886;SDS011;9069;52.044;7.472;2023-04-25T04:12:54;13.75;;;2.72;;
17886;SDS011;9069;52.044;7.472;2023-04-25T04:15:21;19.58;;;3.08;;
17886;SDS011;9069;52.044;7.472;2023-04-25T04:17:48;8.77;;;2.63;;
17886;SDS011;9069;52.044;7.472;2023-04-25T04:20:17;11.68;;;2.45;;
17886;SDS011;9069;52.044;7.472;2023-04-25T04:22:43;15.25;;;3.20;;
17886;SDS011;9069;52.044;7.472;2023-04-25T04:25:12;11.30;;;2.70;;
17886;SDS011;9069;52.044;7.472;2023-04-25T04:28:02;18.92;;;3.03;;
17886;SDS011;9069;52.044;7.472;2023-04-25T04:30:52;15.15;;;2.50;;
17886;SDS011;9069;52.044;7.472;2023-04-25T04:33:19;14.77;;;2.70;;
17886;SDS011;9069;52.044;7.472;2023-04-25T04:35:50;9.95;;;2.50;;
17886;SDS011;9069;52.044;7.472;2023-04-25T04:38:18;13.55;;;2.53;;
17886;SDS011;9069;52.044;7.472;2023-04-25T04:40:46;12.52;;;3.08;;
17886;SDS011;9069;52.044;7.472;2023-04-25T04:43:24;12.13;;;3.05;;
17886;SDS011;9069;52.044;7.472;2023-04-25T04:46:05;11.32;;;2.85;;
17886;SDS011;9069;52.044;7.472;2023-04-25T04:48:32;10.98;;;2.53;;
17886;SDS011;9069;52.044;7.472;2023-04-25T04:51:17;12.48;;;2.45;;
17886;SDS011;9069;52.044;7.472;2023-04-25T04:54:10;11.68;;;2.70;;
17886;SDS011;9069;52.044;7.472;2023-04-25T04:56:49;12.82;;;3.22;;
17886;SDS011;9069;52.044;7.472;2023-04-25T04:59:40;12.23;;;3.38;;
17886;SDS011;9069;52.044;7.472;2023-04-25T05:02:19;13.18;;;3.40;;
17886;SDS011;9069;52.044;7.472;2023-04-25T05:05:22;11.90;;;3.20;;
17886;SDS011;9069;52.044;7.472;2023-04-25T05:08:09;12.32;;;3.53;;
17886;SDS011;9069;52.044;7.472;2023-04-25T05:10:59;20.50;;;4.47;;
17886;SDS011;9069;52.044;7.472;2023-04-25T05:13:51;14.43;;;3.97;;
17886;SDS011;9069;52.044;7.472;2023-04-25T05:16:54;11.50;;;2.75;;
17886;SDS011;9069;52.044;7.472;2023-04-25T05:19:41;16.77;;;4.47;;
17886;SDS011;9069;52.044;7.472;2023-04-25T05:22:33;15.95;;;3.40;;
17886;SDS011;9069;52.044;7.472;2023-04-25T05:25:13;14.65;;;2.72;;
17886;SDS011;9069;52.044;7.472;2023-04-25T05:27:51;15.70;;;2.90;;
17886;SDS011;9069;52.044;7.472;2023-04-25T05:30:48;18.40;;;2.83;;
17886;SDS011;9069;52.044;7.472;2023-04-25T05:33:27;8.57;;;1.95;;
17886;SDS011;9069;52.044;7.472;2023-04-25T05:35:54;10.40;;;2.15;;
17886;SDS011;9069;52.044;7.472;2023-04-25T05:38:21;10.88;;;2.50;;
17886;SDS011;9069;52.044;7.472;2023-04-25T05:41:07;10.88;;;2.63;;
17886;SDS011;9069;52.044;7.472;2023-04-25T05:43:47;11.00;;;2.40;;
17886;SDS011;9069;52.044;7.472;2023-04-25T05:46:30;11.38;;;2.70;;
17886;SDS011;9069;52.044;7.472;2023-04-25T05:49:15;12.27;;;2.08;;
17886;SDS011;9069;52.044;7.472;2023-04-25T05:52:03;10.93;;;2.30;;
17886;SDS011;9069;52.044;7.472;2023-04-25T05:54:41;6.63;;;2.45;;
17886;SDS011;9069;52.044;7.472;2023-04-25T05:57:08;10.55;;;2.40;;
17886;SDS011;9069;52.044;7.472;2023-04-25T05:59:34;6.85;;;2.38;;
17886;SDS011;9069;52.044;7.472;2023-04-25T06:02:02;13.20;;;2.53;;
17886;SDS011;9069;52.044;7.472;2023-04-25T06:04:31;12.20;;;2.55;;
17886;SDS011;9069;52.044;7.472;2023-04-25T06:06:59;16.08;;;2.40;;
17886;SDS011;9069;52.044;7.472;2023-04-25T06:09:26;14.98;;;2.92;;
17886;SDS011;9069;52.044;7.472;2023-04-25T06:11:53;17.40;;;2.88;;
17886;SDS011;9069;52.044;7.472;2023-04-25T06:14:20;10.60;;;2.20;;
17886;SDS011;9069;52.044;7.472;2023-04-25T06:16:48;11.60;;;1.80;;
17886;SDS011;9069;52.044;7.472;2023-04-25T06:19:15;9.77;;;2.05;;
17886;SDS011;9069;52.044;7.472;2023-04-25T06:21:43;11.65;;;2.92;;
17886;SDS011;9069;52.044;7.472;2023-04-25T06:24:10;8.00;;;2.38;;
17886;SDS011;9069;52.044;7.472;2023-04-25T06:26:37;9.77;;;2.15;;
17886;SDS011;9069;52.044;7.472;2023-04-25T06:29:05;6.90;;;1.80;;
17886;SDS011;9069;52.044;7.472;2023-04-25T06:31:31;11.20;;;2.30;;
17886;SDS011;9069;52.044;7.472;2023-04-25T06:34:00;12.00;;;1.85;;
17886;SDS011;9069;52.044;7.472;2023-04-25T06:36:28;13.02;;;2.15;;
17886;SDS011;9069;52.044;7.472;2023-04-25T06:39:01;8.52;;;2.03;;
17886;SDS011;9069;52.044;7.472;2023-04-25T06:41:28;13.52;;;2.50;;
17886;SDS011;9069;52.044;7.472;2023-04-25T06:44:00;11.77;;;2.35;;
17886;SDS011;9069;52.044;7.472;2023-04-25T06:46:48;11.38;;;2.35;;
17886;SDS011;9069;52.044;7.472;2023-04-25T06:49:15;12.93;;;2.65;;
17886;SDS011;9069;52.044;7.472;2023-04-25T06:51:42;16.35;;;2.58;;
17886;SDS011;9069;52.044;7.472;2023-04-25T06:54:08;16.23;;;2.85;;
17886;SDS011;9069;52.044;7.472;2023-04-25T06:56:43;14.15;;;2.75;;
17886;SDS011;9069;52.044;7.472;2023-04-25T06:59:13;13.70;;;2.58;;
17886;SDS011;9069;52.044;7.472;2023-04-25T07:01:41;8.18;;;2.33;;
17886;SDS011;9069;52.044;7.472;2023-04-25T07:04:13;8.52;;;2.25;;
17886;SDS011;9069;52.044;7.472;2023-04-25T07:06:47;11.55;;;1.83;;
17886;SDS011;9069;52.044;7.472;2023-04-25T07:09:17;9.07;;;2.00;;
17886;SDS011;9069;52.044;7.472;2023-04-25T07:11:46;5.55;;;2.20;;
17886;SDS011;9069;52.044;7.472;2023-04-25T07:14:13;6.15;;;1.80;;
17886;SDS011;9069;52.044;7.472;2023-04-25T07:16:39;7.85;;;2.10;;
17886;SDS011;9069;52.044;7.472;2023-04-25T07:19:07;6.35;;;1.77;;
17886;SDS011;9069;52.044;7.472;2023-04-25T07:21:34;7.03;;;1.88;;
17886;SDS011;9069;52.044;7.472;2023-04-25T07:24:03;9.13;;;2.30;;
17886;SDS011;9069;52.044;7.472;2023-04-25T07:26:34;7.85;;;2.00;;
17886;SDS011;9069;52.044;7.472;2023-04-25T07:29:19;6.75;;;1.80;;
17886;SDS011;9069;52.044;7.472;2023-04-25T07:31:46;8.15;;;1.73;;
17886;SDS011;9069;52.044;7.472;2023-04-25T07:34:12;6.85;;;1.73;;
17886;SDS011;9069;52.044;7.472;2023-04-25T07:36:39;10.77;;;1.83;;
17886;SDS011;9069;52.044;7.472;2023-04-25T07:39:06;8.90;;;1.88;;
17886;SDS011;9069;52.044;7.472;2023-04-25T07:41:35;11.05;;;2.00;;
17886;SDS011;9069;52.044;7.472;2023-04-25T07:44:02;15.23;;;1.80;;
17886;SDS011;9069;52.044;7.472;2023-04-25T07:46:33;7.45;;;2.05;;
17886;SDS011;9069;52.044;7.472;2023-04-25T07:49:01;7.20;;;1.67;;
17886;SDS011;9069;52.044;7.472;2023-04-25T07:51:28;9.45;;;2.08;;
17886;SDS011;9069;52.044;7.472;2023-04-25T07:53:59;11.73;;;2.28;;
17886;SDS011;9069;52.044;7.472;2023-04-25T07:56:27;4.20;;;1.58;;
17886;SDS011;9069;52.044;7.472;2023-04-25T07:59:04;5.55;;;1.58;;
17886;SDS011;9069;52.044;7.472;2023-04-25T08:01:31;6.22;;;1.83;;
17886;SDS011;9069;52.044;7.472;2023-04-25T08:04:02;8.15;;;1.60;;
17886;SDS011;9069;52.044;7.472;2023-04-25T08:06:49;8.57;;;1.73;;
17886;SDS011;9069;52.044;7.472;2023-04-25T08:09:21;7.68;;;1.80;;
17886;SDS011;9069;52.044;7.472;2023-04-25T08:11:48;6.50;;;1.45;;
17886;SDS011;9069;52.044;7.472;2023-04-25T08:14:18;7.13;;;1.88;;
17886;SDS011;9069;52.044;7.472;2023-04-25T08:16:47;11.43;;;1.73;;
17886;SDS011;9069;52.044;7.472;2023-04-25T08:19:14;3.92;;;1.48;;
17886;SDS011;9069;52.044;7.472;2023-04-25T08:21:41;9.45;;;1.40;;
17886;SDS011;9069;52.044;7.472;2023-04-25T08:24:13;5.80;;;1.33;;
17886;SDS011;9069;52.044;7.472;2023-04-25T08:26:40;8.60;;;1.42;;
17886;SDS011;9069;52.044;7.472;2023-04-25T08:29:09;6.45;;;1.48;;
17886;SDS011;9069;52.044;7.472;2023-04-25T08:31:39;5.60;;;1.60;;
17886;SDS011;9069;52.044;7.472;2023-04-25T08:34:07;3.53;;;1.23;;
17886;SDS011;9069;52.044;7.472;2023-04-25T08:36:39;2.10;;;0.95;;
17886;SDS011;9069;52.044;7.472;2023-04-25T08:39:32;4.25;;;1.27;;
17886;SDS011;9069;52.044;7.472;2023-04-25T08:42:17;5.30;;;1.92;;
17886;SDS011;9069;52.044;7.472;2023-04-25T08:44:45;5.47;;;1.50;;
17886;SDS011;9069;52.044;7.472;2023-04-25T08:47:14;5.85;;;1.60;;
17886;SDS011;9069;52.044;7.472;2023-04-25T08:49:49;9.38;;;1.83;;
17886;SDS011;9069;52.044;7.472;2023-04-25T08:52:21;3.42;;;1.20;;
17886;SDS011;9069;52.044;7.472;2023-04-25T08:54:51;5.00;;;1.20;;
17886;SDS011;9069;52.044;7.472;2023-04-25T08:57:20;4.68;;;1.20;;
17886;SDS011;9069;52.044;7.472;2023-04-25T08:59:48;4.93;;;1.30;;
17886;SDS011;9069;52.044;7.472;2023-04-25T09:02:16;2.70;;;1.13;;
17886;SDS011;9069;52.044;7.472;2023-04-25T09:04:48;6.65;;;1.15;;
17886;SDS011;9069;52.044;7.472;2023-04-25T09:07:15;2.88;;;1.20;;
17886;SDS011;9069;52.044;7.472;2023-04-25T09:09:44;4.18;;;1.20;;
17886;SDS011;9069;52.044;7.472;2023-04-25T09:12:15;2.63;;;1.02;;
17886;SDS011;9069;52.044;7.472;2023-04-25T09:14:46;2.15;;;0.90;;
17886;SDS011;9069;52.044;7.472;2023-04-25T09:17:43;2.10;;;0.93;;
17886;SDS011;9069;52.044;7.472;2023-04-25T09:20:14;9.25;;;1.30;;
17886;SDS011;9069;52.044;7.472;2023-04-25T09:22:41;4.88;;;1.35;;
17886;SDS011;9069;52.044;7.472;2023-04-25T09:25:10;4.07;;;1.30;;
17886;SDS011;9069;52.044;7.472;2023-04-25T09:27:49;6.53;;;1.50;;
17886;SDS011;9069;52.044;7.472;2023-04-25T09:30:29;8.07;;;1.00;;
17886;SDS011;9069;52.044;7.472;2023-04-25T09:33:10;5.82;;;1.30;;
17886;SDS011;9069;52.044;7.472;2023-04-25T09:35:44;2.03;;;0.93;;
17886;SDS011;9069;52.044;7.472;2023-04-25T09:38:25;4.40;;;1.20;;
17886;SDS011;9069;52.044;7.472;2023-04-25T09:40:54;3.13;;;0.90;;
17886;SDS011;9069;52.044;7.472;2023-04-25T09:43:30;4.22;;;1.17;;
17886;SDS011;9069;52.044;7.472;2023-04-25T09:45:57;4.32;;;1.10;;
17886;SDS011;9069;52.044;7.472;2023-04-25T09:48:28;5.03;;;1.17;;
17886;SDS011;9069;52.044;7.472;2023-04-25T09:53:36;3.03;;;0.95;;
17886;SDS011;9069;52.044;7.472;2023-04-25T09:56:13;3.10;;;1.00;;
17886;SDS011;9069;52.044;7.472;2023-04-25T09:58:40;2.28;;;0.80;;
17886;SDS011;9069;52.044;7.472;2023-04-25T10:01:09;4.90;;;0.98;;
17886;SDS011;9069;52.044;7.472;2023-04-25T10:03:48;3.28;;;1.00;;
17886;SDS011;9069;52.044;7.472;2023-04-25T10:06:36;3.53;;;1.15;;
17886;SDS011;9069;52.044;7.472;2023-04-25T10:09:04;2.35;;;1.08;;
17886;SDS011;9069;52.044;7.472;2023-04-25T10:11:33;2.88;;;1.00;;
17886;SDS011;9069;52.044;7.472;2023-04-25T10:14:01;2.33;;;0.90;;
17886;SDS011;9069;52.044;7.472;2023-04-25T10:16:28;4.45;;;1.10;;
17886;SDS011;9069;52.044;7.472;2023-04-25T10:18:55;3.85;;;1.08;;
17886;SDS011;9069;52.044;7.472;2023-04-25T10:21:22;4.13;;;0.90;;
17886;SDS011;9069;52.044;7.472;2023-04-25T10:23:50;2.28;;;0.95;;
17886;SDS011;9069;52.044;7.472;2023-04-25T10:26:18;6.53;;;1.20;;
17886;SDS011;9069;52.044;7.472;2023-04-25T10:28:55;6.80;;;1.15;;
17886;SDS011;9069;52.044;7.472;2023-04-25T10:31:24;1.52;;;0.70;;
17886;SDS011;9069;52.044;7.472;2023-04-25T10:33:51;2.22;;;0.88;;
17886;SDS011;9069;52.044;7.472;2023-04-25T10:36:19;5.03;;;0.70;;
17886;SDS011;9069;52.044;7.472;2023-04-25T10:38:48;4.47;;;1.10;;
17886;SDS011;9069;52.044;7.472;2023-04-25T10:41:19;6.15;;;1.30;;
17886;SDS011;9069;52.044;7.472;2023-04-25T10:43:48;5.63;;;1.00;;
17886;SDS011;9069;52.044;7.472;2023-04-25T10:48:54;2.47;;;0.90;;
17886;SDS011;9069;52.044;7.472;2023-04-25T10:51:23;5.22;;;1.10;;
17886;SDS011;9069;52.044;7.472;2023-04-25T10:54:20;3.50;;;1.05;;
17886;SDS011;9069;52.044;7.472;2023-04-25T10:56:48;3.85;;;0.80;;
17886;SDS011;9069;52.044;7.472;2023-04-25T10:59:17;3.60;;;0.68;;
17886;SDS011;9069;52.044;7.472;2023-04-25T11:01:49;3.22;;;1.00;;
17886;SDS011;9069;52.044;7.472;2023-04-25T11:04:19;4.00;;;1.15;;
17886;SDS011;9069;52.044;7.472;2023-04-25T11:09:49;3.55;;;0.90;;
17886;SDS011;9069;52.044;7.472;2023-04-25T11:12:16;1.73;;;0.80;;
17886;SDS011;9069;52.044;7.472;2023-04-25T11:14:43;3.83;;;1.00;;
17886;SDS011;9069;52.044;7.472;2023-04-25T11:17:10;1.88;;;0.82;;
17886;SDS011;9069;52.044;7.472;2023-04-25T11:19:37;2.88;;;1.15;;
17886;SDS011;9069;52.044;7.472;2023-04-25T11:22:04;2.85;;;0.88;;
17886;SDS011;9069;52.044;7.472;2023-04-25T11:24:32;2.90;;;1.00;;
17886;SDS011;9069;52.044;7.472;2023-04-25T11:27:01;5.25;;;0.80;;
17886;SDS011;9069;52.044;7.472;2023-04-25T11:29:30;6.95;;;0.60;;
17886;SDS011;9069;52.044;7.472;2023-04-25T11:31:57;1.25;;;0.52;;
17886;SDS011;9069;52.044;7.472;2023-04-25T11:34:26;2.08;;;0.80;;
17886;SDS011;9069;52.044;7.472;2023-04-25T11:36:56;1.40;;;0.75;;
17886;SDS011;9069;52.044;7.472;2023-04-25T11:39:24;3.85;;;0.65;;
17886;SDS011;9069;52.044;7.472;2023-04-25T11:41:52;0.82;;;0.50;;
17886;SDS011;9069;52.044;7.472;2023-04-25T11:44:19;4.10;;;0.80;;
17886;SDS011;9069;52.044;7.472;2023-04-25T11:46:47;2.88;;;0.50;;
17886;SDS011;9069;52.044;7.472;2023-04-25T11:49:14;1.50;;;0.70;;
17886;SDS011;9069;52.044;7.472;2023-04-25T11:51:44;3.47;;;0.60;;
17886;SDS011;9069;52.044;7.472;2023-04-25T11:54:12;3.60;;;0.63;;
17886;SDS011;9069;52.044;7.472;2023-04-25T11:56:43;2.72;;;0.68;;
17886;SDS011;9069;52.044;7.472;2023-04-25T11:59:11;4.25;;;0.93;;
17886;SDS011;9069;52.044;7.472;2023-04-25T12:01:40;5.20;;;0.80;;
17886;SDS011;9069;52.044;7.472;2023-04-25T12:06:43;7.03;;;0.98;;
17886;SDS011;9069;52.044;7.472;2023-04-25T12:09:14;2.08;;;0.82;;
17886;SDS011;9069;52.044;7.472;2023-04-25T12:11:45;5.85;;;1.33;;
17886;SDS011;9069;52.044;7.472;2023-04-25T12:14:23;4.40;;;0.98;;
17886;SDS011;9069;52.044;7.472;2023-04-25T12:16:52;2.72;;;1.02;;
17886;SDS011;9069;52.044;7.472;2023-04-25T12:19:22;3.92;;;1.00;;
17886;SDS011;9069;52.044;7.472;2023-04-25T12:21:48;3.92;;;0.82;;
17886;SDS011;9069;52.044;7.472;2023-04-25T12:24:25;2.88;;;0.82;;
17886;SDS011;9069;52.044;7.472;2023-04-25T12:27:00;1.23;;;0.73;;
17886;SDS011;9069;52.044;7.472;2023-04-25T12:29:29;1.35;;;0.85;;
17886;SDS011;9069;52.044;7.472;2023-04-25T12:32:13;4.10;;;1.00;;
17886;SDS011;9069;52.044;7.472;2023-04-25T12:34:40;6.47;;;0.75;;
17886;SDS011;9069;52.044;7.472;2023-04-25T12:37:06;5.85;;;1.15;;
17886;SDS011;9069;52.044;7.472;2023-04-25T12:39:33;3.80;;;1.00;;
17886;SDS011;9069;52.044;7.472;2023-04-25T12:42:00;2.90;;;0.80;;
17886;SDS011;9069;52.044;7.472;2023-04-25T12:44:27;3.83;;;0.63;;
17886;SDS011;9069;52.044;7.472;2023-04-25T12:46:53;1.88;;;1.00;;
17886;SDS011;9069;52.044;7.472;2023-04-25T12:49:21;0.93;;;0.60;;
17886;SDS011;9069;52.044;7.472;2023-04-25T12:51:48;2.92;;;0.73;;
17886;SDS011;9069;52.044;7.472;2023-04-25T12:54:15;3.47;;;0.70;;
17886;SDS011;9069;52.044;7.472;2023-04-25T12:56:42;3.17;;;0.90;;
17886;SDS011;9069;52.044;7.472;2023-04-25T12:59:08;2.70;;;0.80;;
17886;SDS011;9069;52.044;7.472;2023-04-25T13:01:35;2.45;;;0.70;;
17886;SDS011;9069;52.044;7.472;2023-04-25T13:04:02;7.18;;;1.05;;
17886;SDS011;9069;52.044;7.472;2023-04-25T13:06:29;1.92;;;0.60;;
17886;SDS011;9069;52.044;7.472;2023-04-25T13:08:57;2.45;;;0.60;;
17886;SDS011;9069;52.044;7.472;2023-04-25T13:11:23;1.42;;;0.80;;
17886;SDS011;9069;52.044;7.472;2023-04-25T13:13:50;2.47;;;1.10;;
17886;SDS011;9069;52.044;7.472;2023-04-25T13:16:18;5.20;;;1.13;;
17886;SDS011;9069;52.044;7.472;2023-04-25T13:18:47;1.63;;;0.80;;
17886;SDS011;9069;52.044;7.472;2023-04-25T13:21:14;1.52;;;0.80;;
17886;SDS011;9069;52.044;7.472;2023-04-25T13:23:40;4.07;;;1.00;;
17886;SDS011;9069;52.044;7.472;2023-04-25T13:26:08;5.53;;;1.20;;
17886;SDS011;9069;52.044;7.472;2023-04-25T13:28:36;1.90;;;0.73;;
17886;SDS011;9069;52.044;7.472;2023-04-25T13:31:02;4.05;;;1.15;;
17886;SDS011;9069;52.044;7.472;2023-04-25T13:33:29;2.55;;;0.90;;
17886;SDS011;9069;52.044;7.472;2023-04-25T13:35:56;3.13;;;1.02;;
17886;SDS011;9069;52.044;7.472;2023-04-25T13:38:24;1.70;;;0.60;;
17886;SDS011;9069;52.044;7.472;2023-04-25T13:40:51;2.25;;;0.75;;
17886;SDS011;9069;52.044;7.472;2023-04-25T13:43:19;1.90;;;0.70;;
17886;SDS011;9069;52.044;7.472;2023-04-25T13:45:50;3.95;;;0.70;;
17886;SDS011;9069;52.044;7.472;2023-04-25T13:48:18;3.28;;;0.70;;
17886;SDS011;9069;52.044;7.472;2023-04-25T13:50:46;2.35;;;0.70;;
17886;SDS011;9069;52.044;7.472;2023-04-25T13:53:12;2.47;;;0.80;;
17886;SDS011;9069;52.044;7.472;2023-04-25T13:55:39;5.22;;;1.10;;
17886;SDS011;9069;52.044;7.472;2023-04-25T13:58:06;1.30;;;0.60;;
17886;SDS011;9069;52.044;7.472;2023-04-25T14:00:37;4.35;;;1.10;;
17886;SDS011;9069;52.044;7.472;2023-04-25T14:03:05;2.58;;;0.73;;
17886;SDS011;9069;52.044;7.472;2023-04-25T14:05:34;3.35;;;0.77;;
17886;SDS011;9069;52.044;7.472;2023-04-25T14:08:09;4.63;;;1.02;;
17886;SDS011;9069;52.044;7.472;2023-04-25T14:10:36;3.63;;;1.02;;
17886;SDS011;9069;52.044;7.472;2023-04-25T14:13:04;2.42;;;0.80;;
17886;SDS011;9069;52.044;7.472;2023-04-25T14:15:34;5.20;;;1.45;;
17886;SDS011;9069;52.044;7.472;2023-04-25T14:18:01;1.98;;;1.20;;
17886;SDS011;9069;52.044;7.472;2023-04-25T14:20:28;4.38;;;0.95;;
17886;SDS011;9069;52.044;7.472;2023-04-25T14:22:55;4.55;;;1.63;;
17886;SDS011;9069;52.044;7.472;2023-04-25T14:25:24;2.00;;;1.10;;
17886;SDS011;9069;52.044;7.472;2023-04-25T14:27:51;5.72;;;1.00;;
17886;SDS011;9069;52.044;7.472;2023-04-25T14:30:18;3.03;;;1.00;;
17886;SDS011;9069;52.044;7.472;2023-04-25T14:32:46;2.40;;;1.00;;
17886;SDS011;9069;52.044;7.472;2023-04-25T14:35:14;3.30;;;0.82;;
17886;SDS011;9069;52.044;7.472;2023-04-25T14:37:41;5.95;;;0.80;;
17886;SDS011;9069;52.044;7.472;2023-04-25T14:40:07;4.53;;;0.77;;
17886;SDS011;9069;52.044;7.472;2023-04-25T14:42:37;7.93;;;1.00;;
17886;SDS011;9069;52.044;7.472;2023-04-25T14:45:04;1.77;;;1.10;;
17886;SDS011;9069;52.044;7.472;2023-04-25T14:47:33;2.97;;;1.13;;
17886;SDS011;9069;52.044;7.472;2023-04-25T14:50:01;3.50;;;0.82;;
17886;SDS011;9069;52.044;7.472;2023-04-25T14:52:28;2.83;;;0.98;;
17886;SDS011;9069;52.044;7.472;2023-04-25T14:54:55;2.22;;;0.70;;
17886;SDS011;9069;52.044;7.472;2023-04-25T14:57:21;1.55;;;0.75;;
17886;SDS011;9069;52.044;7.472;2023-04-25T14:59:48;1.90;;;0.60;;
17886;SDS011;9069;52.044;7.472;2023-04-25T15:02:15;2.47;;;0.70;;
17886;SDS011;9069;52.044;7.472;2023-04-25T15:04:42;1.42;;;0.88;;
17886;SDS011;9069;52.044;7.472;2023-04-25T15:07:09;4.25;;;0.85;;
17886;SDS011;9069;52.044;7.472;2023-04-25T15:09:36;1.45;;;0.80;;
17886;SDS011;9069;52.044;7.472;2023-04-25T15:12:03;3.17;;;0.80;;
17886;SDS011;9069;52.044;7.472;2023-04-25T15:14:30;1.70;;;0.80;;
17886;SDS011;9069;52.044;7.472;2023-04-25T15:16:56;2.63;;;0.95;;
17886;SDS011;9069;52.044;7.472;2023-04-25T15:19:23;1.75;;;0.90;;
17886;SDS011;9069;52.044;7.472;2023-04-25T15:21:50;1.33;;;0.70;;
17886;SDS011;9069;52.044;7.472;2023-04-25T15:24:17;1.73;;;0.90;;
17886;SDS011;9069;52.044;7.472;2023-04-25T15:26:44;1.55;;;0.60;;